sensor_id;sensor_type;location;lat;lon;timestamp;temperature;humidity
3071;DHT22;1546;47.208;9.038;2023-03-24T00:02:01;13.70;92.70
3071;DHT22;1546;47.208;9.038;2023-03-24T00:04:29;13.80;93.10
3071;DHT22;1546;47.208;9.038;2023-03-24T00:06:57;13.60;93.20
3071;DHT22;1546;47.208;9.038;2023-03-24T00:09:26;13.40;93.80
3071;DHT22;1546;47.208;9.038;2023-03-24T00:11:54;13.20;93.90
3071;DHT22;1546;47.208;9.038;2023-03-24T00:14:21;13.20;93.60
3071;DHT22;1546;47.208;9.038;2023-03-24T00:16:48;13.20;93.40
3071;DHT22;1546;47.208;9.038;2023-03-24T00:19:15;13.40;93.50
3071;DHT22;1546;47.208;9.038;2023-03-24T00:21:43;13.40;93.60
3071;DHT22;1546;47.208;9.038;2023-03-24T00:24:11;13.40;93.40
3071;DHT22;1546;47.208;9.038;2023-03-24T00:26:39;13.50;92.90
3071;DHT22;1546;47.208;9.038;2023-03-24T00:29:09;13.60;92.70
3071;DHT22;1546;47.208;9.038;2023-03-24T00:31:37;13.70;92.40
3071;DHT22;1546;47.208;9.038;2023-03-24T00:34:04;13.90;92.50
3071;DHT22;1546;47.208;9.038;2023-03-24T00:36:33;13.80;91.70
3071;DHT22;1546;47.208;9.038;2023-03-24T00:39:01;13.90;91.90
3071;DHT22;1546;47.208;9.038;2023-03-24T00:41:30;14.00;92.20
3071;DHT22;1546;47.208;9.038;2023-03-24T00:44:00;14.00;92.30
3071;DHT22;1546;47.208;9.038;2023-03-24T00:46:30;14.10;91.40
3071;DHT22;1546;47.208;9.038;2023-03-24T00:49:00;14.20;91.60
3071;DHT22;1546;47.208;9.038;2023-03-24T00:51:32;14.20;90.90
3071;DHT22;1546;47.208;9.038;2023-03-24T00:54:00;14.30;90.20
3071;DHT22;1546;47.208;9.038;2023-03-24T00:56:28;14.50;90.20
3071;DHT22;1546;47.208;9.038;2023-03-24T00:58:57;14.40;90.70
3071;DHT22;1546;47.208;9.038;2023-03-24T01:01:27;14.40;91.00
3071;DHT22;1546;47.208;9.038;2023-03-24T01:03:55;14.50;91.40
3071;DHT22;1546;47.208;9.038;2023-03-24T01:06:22;14.40;91.10
3071;DHT22;1546;47.208;9.038;2023-03-24T01:08:50;14.30;91.30
3071;DHT22;1546;47.208;9.038;2023-03-24T01:11:19;14.20;91.50
3071;DHT22;1546;47.208;9.038;2023-03-24T01:13:47;14.00;90.30
3071;DHT22;1546;47.208;9.038;2023-03-24T01:16:15;14.10;90.70
3071;DHT22;1546;47.208;9.038;2023-03-24T01:18:42;14.10;91.80
3071;DHT22;1546;47.208;9.038;2023-03-24T01:21:11;14.00;92.10
3071;DHT22;1546;47.208;9.038;2023-03-24T01:23:39;13.80;92.60
3071;DHT22;1546;47.208;9.038;2023-03-24T01:26:09;13.70;92.20
3071;DHT22;1546;47.208;9.038;2023-03-24T01:28:37;13.70;91.50
3071;DHT22;1546;47.208;9.038;2023-03-24T01:31:07;13.90;91.30
3071;DHT22;1546;47.208;9.038;2023-03-24T01:33:36;14.00;90.60
3071;DHT22;1546;47.208;9.038;2023-03-24T01:36:04;14.10;90.50
3071;DHT22;1546;47.208;9.038;2023-03-24T01:38:31;14.20;90.20
3071;DHT22;1546;47.208;9.038;2023-03-24T01:40:58;14.20;91.80
3071;DHT22;1546;47.208;9.038;2023-03-24T01:43:27;14.00;92.10
3071;DHT22;1546;47.208;9.038;2023-03-24T01:46:07;13.80;92.20
3071;DHT22;1546;47.208;9.038;2023-03-24T01:48:39;13.80;92.40
3071;DHT22;1546;47.208;9.038;2023-03-24T01:51:10;13.70;92.60
3071;DHT22;1546;47.208;9.038;2023-03-24T01:53:46;13.70;92.50
3071;DHT22;1546;47.208;9.038;2023-03-24T01:56:13;13.60;92.50
3071;DHT22;1546;47.208;9.038;2023-03-24T01:58:45;13.90;92.00
3071;DHT22;1546;47.208;9.038;2023-03-24T02:01:13;14.10;91.90
3071;DHT22;1546;47.208;9.038;2023-03-24T02:03:43;14.20;92.00
3071;DHT22;1546;47.208;9.038;2023-03-24T02:06:11;14.10;92.30
3071;DHT22;1546;47.208;9.038;2023-03-24T02:08:43;14.00;92.10
3071;DHT22;1546;47.208;9.038;2023-03-24T02:11:12;14.20;91.40
3071;DHT22;1546;47.208;9.038;2023-03-24T02:13:40;14.20;91.20
3071;DHT22;1546;47.208;9.038;2023-03-24T02:16:17;14.30;91.00
3071;DHT22;1546;47.208;9.038;2023-03-24T02:18:54;14.40;91.20
3071;DHT22;1546;47.208;9.038;2023-03-24T02:21:55;14.10;92.40
3071;DHT22;1546;47.208;9.038;2023-03-24T02:24:53;13.80;92.60
3071;DHT22;1546;47.208;9.038;2023-03-24T02:27:42;13.70;92.70
3071;DHT22;1546;47.208;9.038;2023-03-24T02:30:23;13.70;93.40
3071;DHT22;1546;47.208;9.038;2023-03-24T02:33:32;13.70;92.60
3071;DHT22;1546;47.208;9.038;2023-03-24T02:36:39;13.70;93.10
3071;DHT22;1546;47.208;9.038;2023-03-24T02:42:25;13.70;93.70
3071;DHT22;1546;47.208;9.038;2023-03-24T02:45:02;13.70;92.80
3071;DHT22;1546;47.208;9.038;2023-03-24T02:47:37;13.90;92.00
3071;DHT22;1546;47.208;9.038;2023-03-24T02:50:15;14.00;93.00
3071;DHT22;1546;47.208;9.038;2023-03-24T02:52:47;14.10;92.10
3071;DHT22;1546;47.208;9.038;2023-03-24T02:55:18;14.20;91.30
3071;DHT22;1546;47.208;9.038;2023-03-24T02:57:50;14.20;91.80
3071;DHT22;1546;47.208;9.038;2023-03-24T03:00:25;14.30;92.20
3071;DHT22;1546;47.208;9.038;2023-03-24T03:02:58;14.40;92.20
3071;DHT22;1546;47.208;9.038;2023-03-24T03:05:30;14.40;92.90
3071;DHT22;1546;47.208;9.038;2023-03-24T03:08:01;14.50;93.50
3071;DHT22;1546;47.208;9.038;2023-03-24T03:10:31;14.50;93.30
3071;DHT22;1546;47.208;9.038;2023-03-24T03:13:05;14.40;94.00
3071;DHT22;1546;47.208;9.038;2023-03-24T03:15:35;14.30;93.90
3071;DHT22;1546;47.208;9.038;2023-03-24T03:18:07;14.20;93.80
3071;DHT22;1546;47.208;9.038;2023-03-24T03:20:39;14.20;95.00
3071;DHT22;1546;47.208;9.038;2023-03-24T03:23:18;13.90;95.60
3071;DHT22;1546;47.208;9.038;2023-03-24T03:25:50;13.80;95.40
3071;DHT22;1546;47.208;9.038;2023-03-24T03:28:24;13.70;95.70
3071;DHT22;1546;47.208;9.038;2023-03-24T03:30:55;13.70;95.80
3071;DHT22;1546;47.208;9.038;2023-03-24T03:33:25;13.70;96.50
3071;DHT22;1546;47.208;9.038;2023-03-24T03:36:00;13.60;97.20
3071;DHT22;1546;47.208;9.038;2023-03-24T03:38:31;13.50;97.20
3071;DHT22;1546;47.208;9.038;2023-03-24T03:41:03;13.50;97.10
3071;DHT22;1546;47.208;9.038;2023-03-24T03:43:32;13.50;97.30
3071;DHT22;1546;47.208;9.038;2023-03-24T03:46:00;13.50;97.60
3071;DHT22;1546;47.208;9.038;2023-03-24T03:48:28;13.50;98.10
3071;DHT22;1546;47.208;9.038;2023-03-24T03:50:55;13.40;98.30
3071;DHT22;1546;47.208;9.038;2023-03-24T03:53:26;13.50;97.20
3071;DHT22;1546;47.208;9.038;2023-03-24T03:55:54;13.30;98.30
3071;DHT22;1546;47.208;9.038;2023-03-24T03:58:22;13.20;98.70
3071;DHT22;1546;47.208;9.038;2023-03-24T04:00:50;13.10;98.50
3071;DHT22;1546;47.208;9.038;2023-03-24T04:03:35;13.20;98.30
3071;DHT22;1546;47.208;9.038;2023-03-24T04:06:12;13.10;99.50
3071;DHT22;1546;47.208;9.038;2023-03-24T04:08:47;13.00;99.00
3071;DHT22;1546;47.208;9.038;2023-03-24T04:11:47;13.00;98.90
3071;DHT22;1546;47.208;9.038;2023-03-24T04:17:17;13.00;98.60
3071;DHT22;1546;47.208;9.038;2023-03-24T04:19:57;13.20;97.40
3071;DHT22;1546;47.208;9.038;2023-03-24T04:22:36;13.30;97.80
3071;DHT22;1546;47.208;9.038;2023-03-24T04:25:10;13.40;97.80
3071;DHT22;1546;47.208;9.038;2023-03-24T04:27:45;13.20;97.80
3071;DHT22;1546;47.208;9.038;2023-03-24T04:30:18;13.00;97.20
3071;DHT22;1546;47.208;9.038;2023-03-24T04:32:53;13.20;96.80
3071;DHT22;1546;47.208;9.038;2023-03-24T04:35:25;13.20;97.60
3071;DHT22;1546;47.208;9.038;2023-03-24T04:37:58;13.20;96.30
3071;DHT22;1546;47.208;9.038;2023-03-24T04:40:29;13.30;96.00
3071;DHT22;1546;47.208;9.038;2023-03-24T04:42:59;13.60;94.20
3071;DHT22;1546;47.208;9.038;2023-03-24T04:45:28;13.70;96.00
3071;DHT22;1546;47.208;9.038;2023-03-24T04:48:01;13.60;95.00
3071;DHT22;1546;47.208;9.038;2023-03-24T04:50:30;13.70;93.80
3071;DHT22;1546;47.208;9.038;2023-03-24T04:52:59;13.90;94.70
3071;DHT22;1546;47.208;9.038;2023-03-24T04:55:56;13.90;94.90
3071;DHT22;1546;47.208;9.038;2023-03-24T04:58:24;13.80;96.30
3071;DHT22;1546;47.208;9.038;2023-03-24T05:00:51;13.70;93.20
3071;DHT22;1546;47.208;9.038;2023-03-24T05:03:21;13.90;92.40
3071;DHT22;1546;47.208;9.038;2023-03-24T05:05:49;14.10;93.50
3071;DHT22;1546;47.208;9.038;2023-03-24T05:08:17;14.20;93.80
3071;DHT22;1546;47.208;9.038;2023-03-24T05:10:45;14.30;93.80
3071;DHT22;1546;47.208;9.038;2023-03-24T05:13:12;14.40;94.30
3071;DHT22;1546;47.208;9.038;2023-03-24T05:15:39;14.20;94.00
3071;DHT22;1546;47.208;9.038;2023-03-24T05:18:07;14.00;94.30
3071;DHT22;1546;47.208;9.038;2023-03-24T05:20:35;13.90;95.20
3071;DHT22;1546;47.208;9.038;2023-03-24T05:23:02;13.70;96.00
3071;DHT22;1546;47.208;9.038;2023-03-24T05:25:28;13.60;96.30
3071;DHT22;1546;47.208;9.038;2023-03-24T05:27:55;13.50;95.90
3071;DHT22;1546;47.208;9.038;2023-03-24T05:30:22;13.50;95.60
3071;DHT22;1546;47.208;9.038;2023-03-24T05:32:49;13.60;96.00
3071;DHT22;1546;47.208;9.038;2023-03-24T05:35:16;13.60;96.00
3071;DHT22;1546;47.208;9.038;2023-03-24T05:37:44;13.60;95.70
3071;DHT22;1546;47.208;9.038;2023-03-24T05:40:11;13.60;95.50
3071;DHT22;1546;47.208;9.038;2023-03-24T05:42:40;13.60;95.90
3071;DHT22;1546;47.208;9.038;2023-03-24T05:45:08;13.80;96.70
3071;DHT22;1546;47.208;9.038;2023-03-24T05:47:36;13.70;96.30
3071;DHT22;1546;47.208;9.038;2023-03-24T05:50:03;13.60;96.90
3071;DHT22;1546;47.208;9.038;2023-03-24T05:52:30;13.50;96.60
3071;DHT22;1546;47.208;9.038;2023-03-24T05:54:59;13.50;96.50
3071;DHT22;1546;47.208;9.038;2023-03-24T05:57:25;13.50;97.00
3071;DHT22;1546;47.208;9.038;2023-03-24T05:59:55;13.50;97.40
3071;DHT22;1546;47.208;9.038;2023-03-24T06:02:22;13.40;97.60
3071;DHT22;1546;47.208;9.038;2023-03-24T06:04:49;13.40;97.70
3071;DHT22;1546;47.208;9.038;2023-03-24T06:07:16;13.30;98.00
3071;DHT22;1546;47.208;9.038;2023-03-24T06:09:43;13.30;97.10
3071;DHT22;1546;47.208;9.038;2023-03-24T06:12:16;13.30;96.10
3071;DHT22;1546;47.208;9.038;2023-03-24T06:14:46;13.50;96.10
3071;DHT22;1546;47.208;9.038;2023-03-24T06:17:12;13.40;97.40
3071;DHT22;1546;47.208;9.038;2023-03-24T06:19:40;13.50;97.90
3071;DHT22;1546;47.208;9.038;2023-03-24T06:22:15;13.60;97.60
3071;DHT22;1546;47.208;9.038;2023-03-24T06:24:42;13.80;97.40
3071;DHT22;1546;47.208;9.038;2023-03-24T06:27:09;13.80;97.20
3071;DHT22;1546;47.208;9.038;2023-03-24T06:29:37;13.60;97.80
3071;DHT22;1546;47.208;9.038;2023-03-24T06:32:07;13.60;98.00
3071;DHT22;1546;47.208;9.038;2023-03-24T06:34:34;13.40;97.40
3071;DHT22;1546;47.208;9.038;2023-03-24T06:37:03;13.20;98.80
3071;DHT22;1546;47.208;9.038;2023-03-24T06:39:30;13.10;98.10
3071;DHT22;1546;47.208;9.038;2023-03-24T06:41:57;13.20;98.30
3071;DHT22;1546;47.208;9.038;2023-03-24T06:44:25;13.20;98.60
3071;DHT22;1546;47.208;9.038;2023-03-24T06:46:53;13.30;98.30
3071;DHT22;1546;47.208;9.038;2023-03-24T06:49:20;13.40;98.40
3071;DHT22;1546;47.208;9.038;2023-03-24T06:51:46;13.50;97.70
3071;DHT22;1546;47.208;9.038;2023-03-24T06:54:13;13.80;97.60
3071;DHT22;1546;47.208;9.038;2023-03-24T06:56:41;13.90;97.80
3071;DHT22;1546;47.208;9.038;2023-03-24T06:59:08;13.90;97.50
3071;DHT22;1546;47.208;9.038;2023-03-24T07:01:35;14.00;98.00
3071;DHT22;1546;47.208;9.038;2023-03-24T07:04:04;14.00;97.80
3071;DHT22;1546;47.208;9.038;2023-03-24T07:06:32;14.10;98.20
3071;DHT22;1546;47.208;9.038;2023-03-24T07:08:59;14.10;97.70
3071;DHT22;1546;47.208;9.038;2023-03-24T07:11:26;14.20;97.60
3071;DHT22;1546;47.208;9.038;2023-03-24T07:13:53;14.20;97.50
3071;DHT22;1546;47.208;9.038;2023-03-24T07:16:20;14.10;97.80
3071;DHT22;1546;47.208;9.038;2023-03-24T07:18:47;14.10;98.70
3071;DHT22;1546;47.208;9.038;2023-03-24T07:21:15;14.00;98.40
3071;DHT22;1546;47.208;9.038;2023-03-24T07:23:42;13.70;99.50
3071;DHT22;1546;47.208;9.038;2023-03-24T07:26:09;13.40;99.90
3071;DHT22;1546;47.208;9.038;2023-03-24T07:28:36;13.20;99.90
3071;DHT22;1546;47.208;9.038;2023-03-24T07:31:04;13.00;99.90
3071;DHT22;1546;47.208;9.038;2023-03-24T07:33:35;12.90;99.90
3071;DHT22;1546;47.208;9.038;2023-03-24T07:36:03;12.80;99.90
3071;DHT22;1546;47.208;9.038;2023-03-24T07:38:33;12.70;99.90
3071;DHT22;1546;47.208;9.038;2023-03-24T07:41:00;12.60;99.90
3071;DHT22;1546;47.208;9.038;2023-03-24T07:43:27;12.60;99.90
3071;DHT22;1546;47.208;9.038;2023-03-24T07:45:53;12.40;99.90
3071;DHT22;1546;47.208;9.038;2023-03-24T07:48:20;12.40;99.90
3071;DHT22;1546;47.208;9.038;2023-03-24T07:50:47;12.30;99.90
3071;DHT22;1546;47.208;9.038;2023-03-24T07:53:14;12.30;99.90
3071;DHT22;1546;47.208;9.038;2023-03-24T07:55:45;12.40;99.90
3071;DHT22;1546;47.208;9.038;2023-03-24T07:58:12;12.50;99.90
3071;DHT22;1546;47.208;9.038;2023-03-24T08:00:39;12.60;99.90
3071;DHT22;1546;47.208;9.038;2023-03-24T08:03:09;12.70;99.90
3071;DHT22;1546;47.208;9.038;2023-03-24T08:05:39;12.80;99.90
3071;DHT22;1546;47.208;9.038;2023-03-24T08:08:07;13.00;99.90
3071;DHT22;1546;47.208;9.038;2023-03-24T08:10:34;13.20;99.90
3071;DHT22;1546;47.208;9.038;2023-03-24T08:13:03;13.30;99.90
3071;DHT22;1546;47.208;9.038;2023-03-24T08:15:30;13.40;99.90
3071;DHT22;1546;47.208;9.038;2023-03-24T08:17:57;13.50;99.90
3071;DHT22;1546;47.208;9.038;2023-03-24T08:20:25;13.50;99.90
3071;DHT22;1546;47.208;9.038;2023-03-24T08:22:54;13.60;99.90
3071;DHT22;1546;47.208;9.038;2023-03-24T08:25:23;13.60;99.90
3071;DHT22;1546;47.208;9.038;2023-03-24T08:27:51;13.60;99.90
3071;DHT22;1546;47.208;9.038;2023-03-24T08:30:21;13.70;99.90
3071;DHT22;1546;47.208;9.038;2023-03-24T08:32:50;13.80;99.90
3071;DHT22;1546;47.208;9.038;2023-03-24T08:35:18;13.80;99.90
3071;DHT22;1546;47.208;9.038;2023-03-24T08:37:45;13.90;99.90
3071;DHT22;1546;47.208;9.038;2023-03-24T08:40:14;14.10;99.90
3071;DHT22;1546;47.208;9.038;2023-03-24T08:42:46;14.30;99.90
3071;DHT22;1546;47.208;9.038;2023-03-24T08:45:13;14.40;99.90
3071;DHT22;1546;47.208;9.038;2023-03-24T08:47:42;14.30;99.90
3071;DHT22;1546;47.208;9.038;2023-03-24T08:50:09;14.30;99.90
3071;DHT22;1546;47.208;9.038;2023-03-24T08:52:36;14.40;99.90
3071;DHT22;1546;47.208;9.038;2023-03-24T08:55:03;14.60;99.90
3071;DHT22;1546;47.208;9.038;2023-03-24T08:57:30;14.60;99.90
3071;DHT22;1546;47.208;9.038;2023-03-24T08:59:57;14.50;99.90
3071;DHT22;1546;47.208;9.038;2023-03-24T09:02:24;14.50;99.90
3071;DHT22;1546;47.208;9.038;2023-03-24T09:04:53;14.60;99.90
3071;DHT22;1546;47.208;9.038;2023-03-24T09:07:21;14.50;99.90
3071;DHT22;1546;47.208;9.038;2023-03-24T09:09:48;14.60;99.90
3071;DHT22;1546;47.208;9.038;2023-03-24T09:12:14;14.70;99.90
3071;DHT22;1546;47.208;9.038;2023-03-24T09:14:46;14.80;99.90
3071;DHT22;1546;47.208;9.038;2023-03-24T09:17:13;15.00;99.90
3071;DHT22;1546;47.208;9.038;2023-03-24T09:19:40;15.00;99.90
3071;DHT22;1546;47.208;9.038;2023-03-24T09:22:08;14.90;99.90
3071;DHT22;1546;47.208;9.038;2023-03-24T09:24:35;14.80;99.90
3071;DHT22;1546;47.208;9.038;2023-03-24T09:27:02;15.00;99.90
3071;DHT22;1546;47.208;9.038;2023-03-24T09:29:29;15.20;99.90
3071;DHT22;1546;47.208;9.038;2023-03-24T09:31:56;15.40;99.90
3071;DHT22;1546;47.208;9.038;2023-03-24T09:34:23;15.60;99.90
3071;DHT22;1546;47.208;9.038;2023-03-24T09:36:50;15.80;99.90
3071;DHT22;1546;47.208;9.038;2023-03-24T09:39:19;16.10;99.90
3071;DHT22;1546;47.208;9.038;2023-03-24T09:41:45;16.20;99.90
3071;DHT22;1546;47.208;9.038;2023-03-24T09:44:22;16.10;99.90
3071;DHT22;1546;47.208;9.038;2023-03-24T09:46:53;15.90;99.90
3071;DHT22;1546;47.208;9.038;2023-03-24T09:49:23;15.60;99.90
3071;DHT22;1546;47.208;9.038;2023-03-24T09:51:55;15.30;99.90
3071;DHT22;1546;47.208;9.038;2023-03-24T09:54:31;15.30;99.90
3071;DHT22;1546;47.208;9.038;2023-03-24T09:57:03;15.10;99.90
3071;DHT22;1546;47.208;9.038;2023-03-24T09:59:33;14.80;99.90
3071;DHT22;1546;47.208;9.038;2023-03-24T10:02:01;14.60;99.90
3071;DHT22;1546;47.208;9.038;2023-03-24T10:04:30;14.50;99.90
3071;DHT22;1546;47.208;9.038;2023-03-24T10:07:02;14.50;99.90
3071;DHT22;1546;47.208;9.038;2023-03-24T10:09:34;14.60;99.90
3071;DHT22;1546;47.208;9.038;2023-03-24T10:12:20;14.60;99.90
3071;DHT22;1546;47.208;9.038;2023-03-24T10:15:03;14.60;99.90
3071;DHT22;1546;47.208;9.038;2023-03-24T10:17:40;14.70;99.90
3071;DHT22;1546;47.208;9.038;2023-03-24T10:20:21;14.90;99.90
3071;DHT22;1546;47.208;9.038;2023-03-24T10:22:55;15.00;99.90
3071;DHT22;1546;47.208;9.038;2023-03-24T10:25:35;14.80;99.90
3071;DHT22;1546;47.208;9.038;2023-03-24T10:28:10;14.50;99.90
3071;DHT22;1546;47.208;9.038;2023-03-24T10:30:40;14.50;99.90
3071;DHT22;1546;47.208;9.038;2023-03-24T10:33:09;14.70;99.90
3071;DHT22;1546;47.208;9.038;2023-03-24T10:35:38;15.00;99.90
3071;DHT22;1546;47.208;9.038;2023-03-24T10:38:15;15.20;99.90
3071;DHT22;1546;47.208;9.038;2023-03-24T10:40:44;15.50;99.90
3071;DHT22;1546;47.208;9.038;2023-03-24T10:43:12;15.90;99.90
3071;DHT22;1546;47.208;9.038;2023-03-24T10:45:42;16.20;99.90
3071;DHT22;1546;47.208;9.038;2023-03-24T10:48:11;16.60;99.90
3071;DHT22;1546;47.208;9.038;2023-03-24T10:50:42;16.90;99.90
3071;DHT22;1546;47.208;9.038;2023-03-24T10:53:16;16.60;99.90
3071;DHT22;1546;47.208;9.038;2023-03-24T10:55:45;16.30;99.90
3071;DHT22;1546;47.208;9.038;2023-03-24T10:58:18;16.20;99.90
3071;DHT22;1546;47.208;9.038;2023-03-24T11:00:46;15.90;99.90
3071;DHT22;1546;47.208;9.038;2023-03-24T11:03:15;15.90;99.90
3071;DHT22;1546;47.208;9.038;2023-03-24T11:05:43;16.10;99.90
3071;DHT22;1546;47.208;9.038;2023-03-24T11:08:25;16.20;99.90
3071;DHT22;1546;47.208;9.038;2023-03-24T11:10:54;16.30;99.90
3071;DHT22;1546;47.208;9.038;2023-03-24T11:13:28;16.50;99.90
3071;DHT22;1546;47.208;9.038;2023-03-24T11:16:03;16.50;99.90
3071;DHT22;1546;47.208;9.038;2023-03-24T11:18:30;16.60;99.90
3071;DHT22;1546;47.208;9.038;2023-03-24T11:20:58;16.70;99.90
3071;DHT22;1546;47.208;9.038;2023-03-24T11:23:28;16.70;99.90
3071;DHT22;1546;47.208;9.038;2023-03-24T11:26:07;16.50;99.90
3071;DHT22;1546;47.208;9.038;2023-03-24T11:28:37;16.20;99.90
3071;DHT22;1546;47.208;9.038;2023-03-24T11:31:06;16.00;99.90
3071;DHT22;1546;47.208;9.038;2023-03-24T11:33:41;15.90;99.90
3071;DHT22;1546;47.208;9.038;2023-03-24T11:39:14;15.80;99.90
3071;DHT22;1546;47.208;9.038;2023-03-24T11:41:53;15.90;99.90
3071;DHT22;1546;47.208;9.038;2023-03-24T11:44:25;16.20;99.90
3071;DHT22;1546;47.208;9.038;2023-03-24T11:46:55;16.20;99.90
3071;DHT22;1546;47.208;9.038;2023-03-24T11:49:26;16.20;99.90
3071;DHT22;1546;47.208;9.038;2023-03-24T11:51:56;16.10;99.90
3071;DHT22;1546;47.208;9.038;2023-03-24T11:54:27;16.00;99.90
3071;DHT22;1546;47.208;9.038;2023-03-24T11:56:58;15.90;99.90
3071;DHT22;1546;47.208;9.038;2023-03-24T11:59:30;15.80;99.90
3071;DHT22;1546;47.208;9.038;2023-03-24T12:02:09;15.60;99.90
3071;DHT22;1546;47.208;9.038;2023-03-24T12:04:49;15.20;99.90
3071;DHT22;1546;47.208;9.038;2023-03-24T12:10:22;14.90;99.90
3071;DHT22;1546;47.208;9.038;2023-03-24T12:13:01;14.80;99.90
3071;DHT22;1546;47.208;9.038;2023-03-24T12:15:38;14.70;99.90
3071;DHT22;1546;47.208;9.038;2023-03-24T12:18:23;14.80;99.90
3071;DHT22;1546;47.208;9.038;2023-03-24T12:21:00;14.80;99.90
3071;DHT22;1546;47.208;9.038;2023-03-24T12:23:36;14.80;99.90
3071;DHT22;1546;47.208;9.038;2023-03-24T12:26:14;15.00;99.90
3071;DHT22;1546;47.208;9.038;2023-03-24T12:28:54;15.20;99.90
3071;DHT22;1546;47.208;9.038;2023-03-24T12:34:45;15.40;99.90
3071;DHT22;1546;47.208;9.038;2023-03-24T12:37:22;15.60;99.90
3071;DHT22;1546;47.208;9.038;2023-03-24T12:39:57;15.60;99.90
3071;DHT22;1546;47.208;9.038;2023-03-24T12:42:29;15.60;99.90
3071;DHT22;1546;47.208;9.038;2023-03-24T12:45:10;15.60;99.90
3071;DHT22;1546;47.208;9.038;2023-03-24T12:50:40;15.50;99.90
3071;DHT22;1546;47.208;9.038;2023-03-24T12:53:26;15.40;99.90
3071;DHT22;1546;47.208;9.038;2023-03-24T12:55:58;15.40;99.90
3071;DHT22;1546;47.208;9.038;2023-03-24T12:58:34;15.20;99.90
3071;DHT22;1546;47.208;9.038;2023-03-24T13:01:10;15.00;99.90
3071;DHT22;1546;47.208;9.038;2023-03-24T13:03:41;14.90;99.90
3071;DHT22;1546;47.208;9.038;2023-03-24T13:06:16;14.60;99.90
3071;DHT22;1546;47.208;9.038;2023-03-24T13:08:56;14.30;99.90
3071;DHT22;1546;47.208;9.038;2023-03-24T13:11:33;13.90;99.90
3071;DHT22;1546;47.208;9.038;2023-03-24T13:14:04;13.40;99.90
3071;DHT22;1546;47.208;9.038;2023-03-24T13:16:35;13.00;99.90
3071;DHT22;1546;47.208;9.038;2023-03-24T13:19:04;12.70;99.90
3071;DHT22;1546;47.208;9.038;2023-03-24T13:21:38;12.60;99.90
3071;DHT22;1546;47.208;9.038;2023-03-24T13:24:06;12.70;99.90
3071;DHT22;1546;47.208;9.038;2023-03-24T13:26:37;12.80;99.90
3071;DHT22;1546;47.208;9.038;2023-03-24T13:29:17;12.80;99.90
3071;DHT22;1546;47.208;9.038;2023-03-24T13:31:51;12.80;99.90
3071;DHT22;1546;47.208;9.038;2023-03-24T13:34:26;12.60;99.90
3071;DHT22;1546;47.208;9.038;2023-03-24T13:36:57;12.70;99.90
3071;DHT22;1546;47.208;9.038;2023-03-24T13:39:26;12.70;99.90
3071;DHT22;1546;47.208;9.038;2023-03-24T13:41:55;12.70;99.90
3071;DHT22;1546;47.208;9.038;2023-03-24T13:44:24;12.70;99.90
3071;DHT22;1546;47.208;9.038;2023-03-24T13:47:10;12.70;99.90
3071;DHT22;1546;47.208;9.038;2023-03-24T13:49:38;12.50;99.90
3071;DHT22;1546;47.208;9.038;2023-03-24T13:52:26;12.30;99.90
3071;DHT22;1546;47.208;9.038;2023-03-24T13:54:56;12.30;99.90
3071;DHT22;1546;47.208;9.038;2023-03-24T13:57:24;12.40;99.90
3071;DHT22;1546;47.208;9.038;2023-03-24T14:00:06;12.40;99.90
3071;DHT22;1546;47.208;9.038;2023-03-24T14:02:47;12.30;99.90
3071;DHT22;1546;47.208;9.038;2023-03-24T14:05:40;12.30;99.90
3071;DHT22;1546;47.208;9.038;2023-03-24T14:08:15;12.30;99.90
3071;DHT22;1546;47.208;9.038;2023-03-24T14:10:47;12.20;99.90
3071;DHT22;1546;47.208;9.038;2023-03-24T14:13:36;12.20;99.90
3071;DHT22;1546;47.208;9.038;2023-03-24T14:16:32;12.10;99.90
3071;DHT22;1546;47.208;9.038;2023-03-24T14:19:26;12.10;99.90
3071;DHT22;1546;47.208;9.038;2023-03-24T14:22:08;12.10;99.90
3071;DHT22;1546;47.208;9.038;2023-03-24T14:24:36;12.20;99.90
3071;DHT22;1546;47.208;9.038;2023-03-24T14:27:22;12.20;99.90
3071;DHT22;1546;47.208;9.038;2023-03-24T14:29:50;12.20;99.90
3071;DHT22;1546;47.208;9.038;2023-03-24T14:32:20;12.30;99.90
3071;DHT22;1546;47.208;9.038;2023-03-24T14:34:56;12.30;99.90
3071;DHT22;1546;47.208;9.038;2023-03-24T14:37:24;12.30;99.90
3071;DHT22;1546;47.208;9.038;2023-03-24T14:39:53;12.10;99.90
3071;DHT22;1546;47.208;9.038;2023-03-24T14:42:53;12.00;99.90
3071;DHT22;1546;47.208;9.038;2023-03-24T14:48:34;11.80;99.90
3071;DHT22;1546;47.208;9.038;2023-03-24T14:51:27;11.70;99.90
3071;DHT22;1546;47.208;9.038;2023-03-24T14:54:02;11.70;99.90
3071;DHT22;1546;47.208;9.038;2023-03-24T14:56:35;11.60;99.90
3071;DHT22;1546;47.208;9.038;2023-03-24T14:59:09;11.50;99.90
3071;DHT22;1546;47.208;9.038;2023-03-24T15:01:37;11.60;99.90
3071;DHT22;1546;47.208;9.038;2023-03-24T15:04:10;11.60;99.90
3071;DHT22;1546;47.208;9.038;2023-03-24T15:06:46;11.60;99.90
3071;DHT22;1546;47.208;9.038;2023-03-24T15:09:14;11.60;99.90
3071;DHT22;1546;47.208;9.038;2023-03-24T15:11:42;11.60;99.90
3071;DHT22;1546;47.208;9.038;2023-03-24T15:14:17;11.60;99.90
3071;DHT22;1546;47.208;9.038;2023-03-24T15:16:51;11.70;99.90
3071;DHT22;1546;47.208;9.038;2023-03-24T15:19:20;11.60;99.90
3071;DHT22;1546;47.208;9.038;2023-03-24T15:21:56;11.70;99.90
3071;DHT22;1546;47.208;9.038;2023-03-24T15:24:29;11.60;99.90
3071;DHT22;1546;47.208;9.038;2023-03-24T15:27:23;11.50;99.90
3071;DHT22;1546;47.208;9.038;2023-03-24T15:29:56;11.50;99.90
3071;DHT22;1546;47.208;9.038;2023-03-24T15:32:24;11.60;99.90
3071;DHT22;1546;47.208;9.038;2023-03-24T15:34:57;11.60;99.90
3071;DHT22;1546;47.208;9.038;2023-03-24T15:37:30;11.60;99.90
3071;DHT22;1546;47.208;9.038;2023-03-24T15:39:58;11.60;99.90
3071;DHT22;1546;47.208;9.038;2023-03-24T15:42:25;11.60;99.90
3071;DHT22;1546;47.208;9.038;2023-03-24T15:44:53;11.50;99.90
3071;DHT22;1546;47.208;9.038;2023-03-24T15:47:22;11.50;99.90
3071;DHT22;1546;47.208;9.038;2023-03-24T15:49:52;11.60;99.90
3071;DHT22;1546;47.208;9.038;2023-03-24T15:52:28;11.60;99.90
3071;DHT22;1546;47.208;9.038;2023-03-24T15:55:00;11.60;99.90
3071;DHT22;1546;47.208;9.038;2023-03-24T15:57:37;11.50;99.90
3071;DHT22;1546;47.208;9.038;2023-03-24T16:00:11;11.60;99.90
3071;DHT22;1546;47.208;9.038;2023-03-24T16:02:44;11.70;99.90
3071;DHT22;1546;47.208;9.038;2023-03-24T16:05:16;11.80;99.90
3071;DHT22;1546;47.208;9.038;2023-03-24T16:07:53;11.80;99.90
3071;DHT22;1546;47.208;9.038;2023-03-24T16:10:28;11.90;99.90
3071;DHT22;1546;47.208;9.038;2023-03-24T16:13:03;12.10;99.90
3071;DHT22;1546;47.208;9.038;2023-03-24T16:15:32;12.10;99.90
3071;DHT22;1546;47.208;9.038;2023-03-24T16:17:59;12.20;99.90
3071;DHT22;1546;47.208;9.038;2023-03-24T16:20:26;12.30;99.90
3071;DHT22;1546;47.208;9.038;2023-03-24T16:22:54;12.40;99.90
3071;DHT22;1546;47.208;9.038;2023-03-24T16:25:21;12.30;99.90
3071;DHT22;1546;47.208;9.038;2023-03-24T16:27:48;12.20;99.90
3071;DHT22;1546;47.208;9.038;2023-03-24T16:30:18;12.10;99.90
3071;DHT22;1546;47.208;9.038;2023-03-24T16:32:46;12.00;99.90
3071;DHT22;1546;47.208;9.038;2023-03-24T16:35:13;12.00;99.90
3071;DHT22;1546;47.208;9.038;2023-03-24T16:37:39;12.10;99.90
3071;DHT22;1546;47.208;9.038;2023-03-24T16:40:19;12.20;99.90
3071;DHT22;1546;47.208;9.038;2023-03-24T16:42:46;12.20;99.90
3071;DHT22;1546;47.208;9.038;2023-03-24T16:45:13;12.20;99.90
3071;DHT22;1546;47.208;9.038;2023-03-24T16:47:40;12.20;99.90
3071;DHT22;1546;47.208;9.038;2023-03-24T16:50:23;12.10;99.90
3071;DHT22;1546;47.208;9.038;2023-03-24T16:52:52;11.90;99.90